Terminal Aerodrome Forecast
Issued by NWS Kansas City/Pleasant Hill, MO

Home | Current Version | Previous Version | Text Only | Print | Product List | Glossary On
Versions: 1 2 3 4 5 6 7 8 9 10 11 12 13 14 15 16 17 18
000
FTUS43 KEAX 021100
TAFMCI
TAF
KMCI 021121Z 0212/0312 05010KT 6SM BR SCT011 OVC020
     FM021600 04009KT P6SM SCT025
     FM030900 06005KT 3SM BR SCT015=

USA.gov is the U.S. government's official web portal to all federal, state and local government web resources and services.